Time;durP1;ratioP1;P1;durP2;ratioP2;P2;SDS_P1;SDS_P2;PMS_P1;PMS_P2;Temp;Humidity;BMP_temperature;BMP_pressure;BME280_temperature;BME280_humidity;BME280_pressure;Samples;Min_cycle;Max_cycle;Signal;HPM_P1;HPM_P2
2023/08/05 00:00:22;;;;;;;5.97;2.63;;;16.60;99.90;;;;;;5013094;28;20038;-78
2023/08/05 00:03:08;;;;;;;5.10;2.72;;;16.60;99.90;;;;;;5012743;28;20052;-78
2023/08/05 00:05:54;;;;;;;6.68;2.80;;;16.60;99.90;;;;;;5001026;28;20053;-78
2023/08/05 00:08:40;;;;;;;5.43;2.58;;;16.50;99.90;;;;;;5014030;28;20037;-78
2023/08/05 00:11:26;;;;;;;7.63;3.13;;;16.50;99.90;;;;;;4999207;28;20672;-77
2023/08/05 00:14:12;;;;;;;6.13;2.65;;;16.50;99.90;;;;;;5013434;28;20362;-77
2023/08/05 00:16:58;;;;;;;4.35;2.78;;;16.40;99.90;;;;;;5009761;28;20035;-77
2023/08/05 00:19:44;;;;;;;7.20;3.03;;;16.40;99.90;;;;;;4997274;28;20421;-78
2023/08/05 00:22:30;;;;;;;7.32;3.03;;;16.30;99.90;;;;;;4987420;28;20057;-78
2023/08/05 00:25:16;;;;;;;6.43;3.08;;;16.30;99.90;;;;;;4982003;28;20042;-78
2023/08/05 00:28:02;;;;;;;5.90;2.90;;;16.30;99.90;;;;;;4993802;28;20041;-78
2023/08/05 00:30:48;;;;;;;7.25;3.35;;;16.30;99.90;;;;;;4995246;28;20118;-78
2023/08/05 00:33:35;;;;;;;4.30;2.72;;;16.30;99.90;;;;;;5009348;28;20049;-78
2023/08/05 00:36:21;;;;;;;6.63;3.35;;;16.30;99.90;;;;;;4999103;28;20652;-78
2023/08/05 00:39:07;;;;;;;5.93;3.08;;;16.30;99.90;;;;;;5010776;28;20048;-77
2023/08/05 00:41:53;;;;;;;10.82;3.15;;;16.30;99.90;;;;;;5009616;28;20125;-78
2023/08/05 00:44:39;;;;;;;5.22;3.10;;;16.20;99.90;;;;;;4995648;28;20655;-78
2023/08/05 00:47:25;;;;;;;7.35;3.00;;;16.20;99.90;;;;;;5011613;28;20050;-78
2023/08/05 00:50:11;;;;;;;7.18;2.90;;;16.20;99.90;;;;;;4992861;28;20034;-77
2023/08/05 00:52:57;;;;;;;5.38;2.50;;;16.20;99.90;;;;;;4999496;28;20041;-78
2023/08/05 00:55:43;;;;;;;7.38;3.20;;;16.20;99.90;;;;;;5006653;28;20095;-77
2023/08/05 00:58:31;;;;;;;5.65;3.00;;;16.20;99.90;;;;;;4992029;28;20434;-78
2023/08/05 01:01:17;;;;;;;5.50;2.92;;;16.20;99.90;;;;;;5013355;28;20062;-78
2023/08/05 01:04:04;;;;;;;8.73;3.75;;;16.10;99.90;;;;;;4998535;28;20040;-78
2023/08/05 01:06:50;;;;;;;5.30;2.70;;;16.10;99.90;;;;;;5011412;28;20044;-78
2023/08/05 01:09:36;;;;;;;5.72;2.75;;;16.00;99.90;;;;;;4984936;28;20636;-77
2023/08/05 01:12:22;;;;;;;7.40;3.38;;;16.00;99.90;;;;;;4994222;28;20049;-78
2023/08/05 01:15:08;;;;;;;6.72;3.20;;;16.00;99.90;;;;;;5002794;28;20485;-77
2023/08/05 01:17:54;;;;;;;8.90;3.15;;;15.90;99.90;;;;;;5021111;28;20103;-77
2023/08/05 01:20:46;;;;;;;6.25;2.83;;;15.90;99.90;;;;;;5001742;28;20037;-78
2023/08/05 01:23:51;;;;;;;8.80;3.85;;;15.90;99.90;;;;;;5018770;28;20382;-78
2023/08/05 01:26:37;;;;;;;7.70;3.60;;;15.90;99.90;;;;;;5028223;28;20529;-77
2023/08/05 01:29:23;;;;;;;8.07;3.97;;;15.90;99.90;;;;;;5008740;28;20132;-78
2023/08/05 01:32:09;;;;;;;5.93;3.47;;;15.80;99.90;;;;;;4980871;28;20037;-78
2023/08/05 01:34:55;;;;;;;6.82;3.15;;;15.80;99.90;;;;;;5007884;28;20052;-78
2023/08/05 01:37:42;;;;;;;7.00;3.35;;;15.80;99.90;;;;;;5007562;28;20042;-78
2023/08/05 01:40:29;;;;;;;5.10;2.95;;;15.80;99.90;;;;;;5001154;28;20045;-78
2023/08/05 01:43:15;;;;;;;6.50;3.00;;;15.80;99.90;;;;;;5004759;28;20041;-78
2023/08/05 01:46:02;;;;;;;6.30;3.65;;;15.80;99.90;;;;;;5008953;28;20063;-78
2023/08/05 01:48:48;;;;;;;6.20;3.37;;;15.80;99.90;;;;;;5036174;28;20034;-78
2023/08/05 01:51:34;;;;;;;6.85;3.40;;;15.80;99.90;;;;;;4979773;28;20103;-78
2023/08/05 01:54:20;;;;;;;4.53;3.08;;;15.80;99.90;;;;;;5021534;28;20498;-77
2023/08/05 01:57:06;;;;;;;4.88;3.25;;;15.80;99.90;;;;;;5017827;28;20128;-77
2023/08/05 01:59:52;;;;;;;7.35;3.47;;;15.80;99.90;;;;;;5021295;28;20047;-77
2023/08/05 02:02:38;;;;;;;5.50;3.00;;;15.80;99.90;;;;;;5009898;28;20053;-78
2023/08/05 02:05:24;;;;;;;6.43;3.22;;;15.80;99.90;;;;;;5036956;28;20033;-78
2023/08/05 02:08:10;;;;;;;8.18;3.25;;;15.70;99.90;;;;;;5014130;28;20042;-77
2023/08/05 02:10:56;;;;;;;7.00;3.80;;;15.70;99.90;;;;;;5008286;28;20124;-77
2023/08/05 02:13:42;;;;;;;7.78;3.50;;;15.70;99.90;;;;;;5002929;28;20410;-76
2023/08/05 02:16:28;;;;;;;6.13;3.60;;;15.70;99.90;;;;;;5001649;28;20041;-76
2023/08/05 02:19:14;;;;;;;6.80;3.78;;;15.60;99.90;;;;;;5004500;28;20095;-76
2023/08/05 02:22:00;;;;;;;6.22;3.85;;;15.60;99.90;;;;;;5026489;28;20444;-76
2023/08/05 02:24:46;;;;;;;6.07;3.67;;;15.60;99.90;;;;;;5016373;28;20045;-77
2023/08/05 02:27:32;;;;;;;4.97;3.50;;;15.60;99.90;;;;;;5005709;28;20057;-77
2023/08/05 02:30:18;;;;;;;7.97;3.58;;;15.60;99.90;;;;;;5002869;28;20443;-76
2023/08/05 02:33:04;;;;;;;7.82;3.28;;;15.60;99.90;;;;;;5017967;28;20033;-77
2023/08/05 02:35:55;;;;;;;4.70;3.22;;;15.60;99.90;;;;;;5013570;28;20049;-76
2023/08/05 02:38:41;;;;;;;4.68;3.40;;;15.60;99.90;;;;;;5007253;28;20045;-77
2023/08/05 02:41:27;;;;;;;4.65;3.55;;;15.60;99.90;;;;;;5018393;28;20120;-76
2023/08/05 02:44:14;;;;;;;7.50;3.50;;;15.60;99.90;;;;;;5018748;28;20029;-77
2023/08/05 02:47:00;;;;;;;6.55;3.95;;;15.60;99.90;;;;;;4997039;28;20052;-77
2023/08/05 02:49:46;;;;;;;9.70;4.03;;;15.60;99.90;;;;;;4994789;28;20034;-77
2023/08/05 02:52:32;;;;;;;7.70;4.05;;;15.60;99.90;;;;;;5006281;28;20160;-76
2023/08/05 02:55:18;;;;;;;10.10;4.20;;;15.50;99.90;;;;;;5027265;28;20049;-77
2023/08/05 02:58:04;;;;;;;7.28;3.53;;;15.50;99.90;;;;;;5020909;28;20037;-77
2023/08/05 03:00:50;;;;;;;8.00;4.05;;;15.60;99.90;;;;;;5020908;28;20136;-76
2023/08/05 03:03:36;;;;;;;7.60;3.95;;;15.60;99.90;;;;;;4992953;28;20057;-77
2023/08/05 03:06:22;;;;;;;6.35;3.60;;;15.50;99.90;;;;;;5020684;28;20033;-77
2023/08/05 03:09:08;;;;;;;5.47;3.00;;;15.50;99.90;;;;;;5004896;28;20071;-76
2023/08/05 03:11:54;;;;;;;8.23;3.67;;;15.50;99.90;;;;;;5020313;28;20068;-77
2023/08/05 03:14:40;;;;;;;6.22;3.22;;;15.50;99.90;;;;;;5022534;28;20037;-76
2023/08/05 03:17:26;;;;;;;6.72;3.15;;;15.40;99.90;;;;;;5019418;28;20099;-76
2023/08/05 03:20:26;;;;;;;5.53;3.25;;;15.40;99.90;;;;;;5020710;28;20063;-77
2023/08/05 03:23:12;;;;;;;6.88;3.60;;;15.40;99.90;;;;;;4992643;28;20041;-76
2023/08/05 03:25:58;;;;;;;7.18;3.45;;;15.40;99.90;;;;;;5021902;28;20068;-76
2023/08/05 03:28:44;;;;;;;4.15;3.15;;;15.30;99.90;;;;;;5006460;28;20045;-76
2023/08/05 03:31:30;;;;;;;6.28;3.55;;;15.30;99.90;;;;;;5006826;28;20033;-76
2023/08/05 03:34:17;;;;;;;7.97;3.30;;;15.20;99.90;;;;;;5017965;28;20034;-77
2023/08/05 03:37:04;;;;;;;6.05;3.13;;;15.20;99.90;;;;;;5015532;28;20504;-76
2023/08/05 03:39:50;;;;;;;6.55;4.13;;;15.20;99.90;;;;;;5016281;28;20065;-77
2023/08/05 03:42:36;;;;;;;6.93;3.92;;;15.20;99.90;;;;;;5017688;28;20487;-77
2023/08/05 03:45:22;;;;;;;4.88;3.42;;;15.10;99.90;;;;;;5013577;28;20393;-76
2023/08/05 03:48:08;;;;;;;6.32;3.65;;;15.10;99.90;;;;;;5007201;28;20120;-77
2023/08/05 03:50:54;;;;;;;6.80;3.30;;;15.10;99.90;;;;;;5007327;28;20492;-77
2023/08/05 03:53:41;;;;;;;5.88;3.72;;;15.10;99.90;;;;;;4992395;28;20053;-78
2023/08/05 03:56:28;;;;;;;7.47;3.75;;;15.10;99.90;;;;;;5019285;28;20483;-77
2023/08/05 03:59:14;;;;;;;6.47;3.80;;;15.10;99.90;;;;;;5019383;28;20069;-77
2023/08/05 04:02:00;;;;;;;7.47;3.97;;;15.10;99.90;;;;;;5019843;28;20045;-77
2023/08/05 04:04:46;;;;;;;7.22;3.75;;;15.20;99.90;;;;;;4987972;28;20038;-77
2023/08/05 04:07:32;;;;;;;5.97;4.05;;;15.20;99.90;;;;;;4990678;28;20045;-76
2023/08/05 04:10:21;;;;;;;8.35;3.60;;;15.20;99.90;;;;;;5018740;28;20033;-77
2023/08/05 04:13:11;;;;;;;7.82;4.15;;;15.20;99.90;;;;;;5007142;28;20044;-77
2023/08/05 04:15:59;;;;;;;5.78;3.70;;;15.10;99.90;;;;;;5017439;28;20135;-77
2023/08/05 04:18:48;;;;;;;6.13;3.65;;;15.10;99.90;;;;;;4993471;28;20084;-77
2023/08/05 04:21:40;;;;;;;7.28;4.03;;;15.00;99.90;;;;;;4990010;28;20124;-77
2023/08/05 04:24:28;;;;;;;9.25;4.32;;;15.00;99.90;;;;;;4993373;28;20488;-77
2023/08/05 04:27:16;;;;;;;8.13;4.00;;;15.00;99.90;;;;;;5019415;28;20037;-77
2023/08/05 04:30:02;;;;;;;8.50;4.00;;;15.10;99.90;;;;;;5020056;28;20033;-78
2023/08/05 04:32:48;;;;;;;9.68;4.85;;;15.10;99.90;;;;;;5003614;28;20064;-77
2023/08/05 04:35:35;;;;;;;9.10;4.15;;;15.10;99.90;;;;;;4994620;28;20041;-77
2023/08/05 04:38:21;;;;;;;12.23;5.93;;;15.10;99.90;;;;;;5000046;28;20045;-77
2023/08/05 04:41:07;;;;;;;7.13;5.15;;;15.20;99.90;;;;;;5016043;28;20041;-77
2023/08/05 04:43:53;;;;;;;8.85;4.47;;;15.20;99.90;;;;;;4992896;28;20037;-78
2023/08/05 04:46:39;;;;;;;9.32;5.15;;;15.30;99.90;;;;;;5012717;28;20034;-78
2023/08/05 04:49:25;;;;;;;7.95;4.75;;;15.30;99.90;;;;;;5018074;28;20041;-78
2023/08/05 04:52:13;;;;;;;8.82;4.60;;;15.30;99.90;;;;;;5003933;28;20064;-77
2023/08/05 04:55:08;;;;;;;9.80;4.63;;;15.30;99.90;;;;;;5013260;28;20041;-77
2023/08/05 04:57:54;;;;;;;6.25;4.40;;;15.40;99.90;;;;;;4984641;28;20038;-76
2023/08/05 05:00:40;;;;;;;9.55;4.43;;;15.40;99.90;;;;;;4997878;28;20037;-77
2023/08/05 05:03:26;;;;;;;6.30;4.03;;;15.40;99.90;;;;;;5004021;28;20073;-77
2023/08/05 05:06:12;;;;;;;6.82;4.38;;;15.30;99.90;;;;;;5032448;28;20068;-76
2023/08/05 05:08:58;;;;;;;9.38;5.07;;;15.30;99.90;;;;;;5018423;28;20075;-78
2023/08/05 05:11:45;;;;;;;8.68;4.93;;;15.40;99.90;;;;;;4991976;28;20052;-77
2023/08/05 05:14:33;;;;;;;9.73;5.00;;;15.40;99.90;;;;;;5019418;28;20026;-77
2023/08/05 05:17:19;;;;;;;9.05;5.35;;;15.40;99.90;;;;;;4990782;28;20041;-76
2023/08/05 05:20:05;;;;;;;9.35;4.90;;;15.40;99.90;;;;;;5017770;28;20045;-76
2023/08/05 05:22:51;;;;;;;10.13;4.68;;;15.40;99.90;;;;;;5013299;28;20045;-77
2023/08/05 05:25:37;;;;;;;9.18;4.88;;;15.40;99.90;;;;;;5005625;28;20038;-77
2023/08/05 05:28:23;;;;;;;13.38;5.18;;;15.40;99.90;;;;;;4996913;28;20695;-77
2023/08/05 05:31:09;;;;;;;11.13;5.60;;;15.40;99.90;;;;;;4999551;28;20034;-77
2023/08/05 05:33:55;;;;;;;8.45;5.32;;;15.40;99.90;;;;;;5020301;28;20045;-78
2023/08/05 05:36:41;;;;;;;7.72;5.43;;;15.40;99.90;;;;;;5017019;28;20145;-78
2023/08/05 05:39:27;;;;;;;9.25;5.72;;;15.40;99.90;;;;;;5002879;28;20037;-77
2023/08/05 05:42:13;;;;;;;10.45;5.60;;;15.50;99.90;;;;;;5004343;28;20388;-76
2023/08/05 05:45:00;;;;;;;12.23;6.10;;;15.40;99.90;;;;;;4991357;28;20091;-77
2023/08/05 05:47:46;;;;;;;9.88;5.63;;;15.50;99.90;;;;;;5006311;28;20042;-77
2023/08/05 05:50:32;;;;;;;8.63;5.40;;;15.50;99.90;;;;;;5031574;28;20038;-77
2023/08/05 05:53:18;;;;;;;8.65;5.78;;;15.50;99.90;;;;;;5030578;28;20099;-77
2023/08/05 05:56:05;;;;;;;10.20;5.28;;;15.60;99.90;;;;;;5015895;28;20034;-77
2023/08/05 05:58:51;;;;;;;10.48;5.70;;;15.60;99.90;;;;;;4990417;28;20052;-76
2023/08/05 06:01:37;;;;;;;8.75;5.55;;;15.60;99.90;;;;;;4994225;28;20103;-77
2023/08/05 06:04:27;;;;;;;10.15;6.32;;;15.70;99.90;;;;;;5000020;28;20033;-78
2023/08/05 06:07:14;;;;;;;10.27;6.00;;;15.70;99.90;;;;;;5018420;28;20148;-73
2023/08/05 06:10:00;;;;;;;12.63;6.25;;;15.70;99.90;;;;;;5019431;28;20041;-73
2023/08/05 06:12:46;;;;;;;8.85;5.60;;;15.80;99.90;;;;;;5018951;28;20458;-73
2023/08/05 06:15:32;;;;;;;8.50;5.43;;;15.90;99.90;;;;;;5026973;28;20038;-73
2023/08/05 06:18:18;;;;;;;10.05;5.10;;;15.90;99.90;;;;;;5012008;28;20061;-74
2023/08/05 06:21:04;;;;;;;13.65;5.53;;;16.00;99.90;;;;;;5012601;28;20046;-73
2023/08/05 06:23:50;;;;;;;8.93;5.05;;;16.00;99.90;;;;;;5033070;28;20041;-74
2023/08/05 06:26:36;;;;;;;7.63;4.60;;;16.00;99.90;;;;;;5018571;28;20389;-73
2023/08/05 06:29:22;;;;;;;9.15;4.50;;;16.10;99.90;;;;;;5033067;28;20075;-73
2023/08/05 06:32:08;;;;;;;8.70;4.47;;;16.10;99.90;;;;;;4981662;28;20387;-72
2023/08/05 06:34:54;;;;;;;10.63;4.43;;;16.10;99.90;;;;;;5008497;28;20041;-75
2023/08/05 06:37:40;;;;;;;8.98;4.30;;;16.20;99.90;;;;;;5031444;28;20163;-79
2023/08/05 06:40:25;;;;;;;9.90;5.15;;;16.20;99.90;;;;;;5010047;28;20069;-78
2023/08/05 06:43:11;;;;;;;6.63;3.70;;;16.20;99.90;;;;;;5004610;28;20046;-78
2023/08/05 06:45:59;;;;;;;8.05;3.85;;;16.30;99.90;;;;;;5008830;28;20050;-78
2023/08/05 06:48:45;;;;;;;8.48;4.20;;;16.30;99.90;;;;;;5005294;28;20127;-78
2023/08/05 06:51:34;;;;;;;8.20;3.70;;;16.40;99.90;;;;;;5015349;28;20789;-78
2023/08/05 06:54:22;;;;;;;10.00;4.22;;;16.30;99.90;;;;;;5031039;28;20678;-78
2023/08/05 06:57:08;;;;;;;;;;;16.40;99.90;;;;;;5053722;28;20499;-78
2023/08/05 06:59:54;;;;;;;9.88;4.32;;;16.40;99.90;;;;;;5028672;28;19983;-78
2023/08/05 07:02:40;;;;;;;9.15;4.03;;;16.40;99.90;;;;;;4993506;28;20049;-78
2023/08/05 07:05:26;;;;;;;11.13;4.43;;;16.50;99.90;;;;;;5019781;28;20413;-78
2023/08/05 07:08:12;;;;;;;7.72;3.72;;;16.50;99.90;;;;;;5024756;28;20116;-78
2023/08/05 07:10:59;;;;;;;7.57;3.35;;;16.60;99.90;;;;;;5006520;28;20045;-78
2023/08/05 07:13:46;;;;;;;10.95;3.17;;;16.50;99.90;;;;;;4986767;28;20046;-78
2023/08/05 07:16:32;;;;;;;5.87;2.73;;;16.60;99.90;;;;;;5019346;28;20037;-78
2023/08/05 07:19:18;;;;;;;7.07;2.92;;;16.70;99.90;;;;;;5018689;28;20501;-78
2023/08/05 07:22:05;;;;;;;8.60;3.72;;;16.70;99.90;;;;;;5002699;28;20053;-78
2023/08/05 07:24:57;;;;;;;7.03;2.83;;;16.80;99.90;;;;;;4991750;28;20361;-78
2023/08/05 07:27:43;;;;;;;6.65;2.72;;;16.80;99.90;;;;;;4990606;28;20088;-78
2023/08/05 07:30:29;;;;;;;8.95;2.60;;;16.80;99.90;;;;;;5000361;28;20127;-78
2023/08/05 07:33:17;;;;;;;12.07;3.67;;;16.80;99.90;;;;;;5013986;28;20037;-78
2023/08/05 07:36:22;;;;;;;7.97;2.28;;;16.90;99.90;;;;;;5006449;28;20090;-79
2023/08/05 07:39:08;;;;;;;9.27;2.88;;;16.90;99.90;;;;;;5003898;28;20037;-79
2023/08/05 07:41:54;;;;;;;5.63;2.30;;;16.90;99.90;;;;;;4973233;28;20135;-78
2023/08/05 07:44:42;;;;;;;8.02;2.58;;;16.90;99.90;;;;;;4985255;28;20037;-78
2023/08/05 07:47:29;;;;;;;6.45;2.55;;;16.90;99.90;;;;;;5003857;28;20048;-78
2023/08/05 07:50:16;;;;;;;10.48;2.63;;;16.90;99.90;;;;;;4986900;28;20042;-78
2023/08/05 07:53:04;;;;;;;6.45;2.50;;;16.90;99.90;;;;;;5006595;28;20381;-78
2023/08/05 07:55:50;;;;;;;5.80;1.90;;;16.90;99.90;;;;;;5019203;28;20469;-78
2023/08/05 07:58:39;;;;;;;6.78;2.45;;;17.00;99.90;;;;;;5027723;28;20037;-78
2023/08/05 08:01:26;;;;;;;11.68;2.97;;;17.00;99.90;;;;;;4988197;28;20104;-78
2023/08/05 08:04:14;;;;;;;4.30;2.10;;;17.00;99.90;;;;;;4997970;28;20053;-79
2023/08/05 08:07:00;;;;;;;7.28;2.17;;;17.00;99.90;;;;;;5007790;28;20037;-78
2023/08/05 08:09:46;;;;;;;5.60;2.20;;;17.10;99.90;;;;;;5012744;28;20100;-78
2023/08/05 08:12:32;;;;;;;7.90;2.40;;;17.10;99.90;;;;;;4998234;28;20140;-78
2023/08/05 08:15:18;;;;;;;6.50;2.22;;;17.00;99.90;;;;;;5003620;28;20042;-78
2023/08/05 08:18:04;;;;;;;6.05;2.40;;;17.10;99.90;;;;;;5005823;28;20096;-78
2023/08/05 08:20:51;;;;;;;6.22;2.10;;;17.10;99.90;;;;;;5013221;28;20099;-78
2023/08/05 08:23:37;;;;;;;6.63;2.15;;;17.10;99.90;;;;;;4985778;28;20049;-78
2023/08/05 08:26:23;;;;;;;9.02;2.75;;;17.20;99.90;;;;;;4985685;28;20030;-78
2023/08/05 08:29:09;;;;;;;9.32;2.70;;;17.30;99.90;;;;;;5013430;28;20402;-79
2023/08/05 08:31:55;;;;;;;7.03;2.20;;;17.30;99.90;;;;;;5012252;28;20196;-78
2023/08/05 08:34:41;;;;;;;3.88;1.77;;;17.40;99.90;;;;;;5012398;28;20470;-79
2023/08/05 08:37:27;;;;;;;5.72;2.20;;;17.40;99.90;;;;;;5013764;28;20053;-78
2023/08/05 08:40:13;;;;;;;7.28;2.50;;;17.40;99.90;;;;;;5016577;28;20482;-80
2023/08/05 08:42:58;;;;;;;5.60;2.15;;;17.50;99.90;;;;;;5016216;28;20050;-80
2023/08/05 08:45:47;;;;;;;6.80;2.25;;;17.70;99.90;;;;;;5003874;28;20045;-80
2023/08/05 08:48:36;;;;;;;8.15;2.13;;;17.70;99.90;;;;;;5003676;28;20034;-80
2023/08/05 08:51:22;;;;;;;6.03;2.00;;;17.80;99.90;;;;;;5000016;28;20046;-79
2023/08/05 08:54:08;;;;;;;4.18;2.30;;;17.80;99.90;;;;;;5002765;28;20056;-80
2023/08/05 08:56:54;;;;;;;8.88;2.47;;;17.90;99.90;;;;;;5003275;28;20116;-80
2023/08/05 08:59:40;;;;;;;4.32;2.20;;;18.00;99.90;;;;;;4987928;28;20109;-81
2023/08/05 09:02:26;;;;;;;7.07;2.30;;;18.00;99.90;;;;;;4990249;28;20045;-80
2023/08/05 09:05:12;;;;;;;5.30;2.10;;;18.10;99.90;;;;;;5005823;28;20042;-80
2023/08/05 09:07:58;;;;;;;7.60;2.25;;;18.20;99.90;;;;;;4984611;28;20041;-80
2023/08/05 09:10:44;;;;;;;6.70;2.35;;;18.30;99.90;;;;;;4998220;28;20088;-79
2023/08/05 09:13:30;;;;;;;5.22;2.28;;;18.20;99.90;;;;;;5013732;28;20045;-80
2023/08/05 09:16:16;;;;;;;6.07;2.47;;;18.30;99.90;;;;;;5001434;28;20049;-79
2023/08/05 09:19:02;;;;;;;7.38;2.33;;;18.40;99.90;;;;;;4999789;28;20054;-79
2023/08/05 09:21:48;;;;;;;5.50;2.17;;;18.40;99.90;;;;;;5033529;28;20087;-79
2023/08/05 09:24:34;;;;;;;5.72;2.33;;;18.30;99.90;;;;;;5007608;28;20038;-78
2023/08/05 09:27:20;;;;;;;4.85;2.55;;;18.30;99.90;;;;;;4980732;28;20125;-79
2023/08/05 09:30:16;;;;;;;4.53;2.17;;;18.30;99.90;;;;;;5002284;28;20042;-80
2023/08/05 09:33:03;;;;;;;7.70;2.75;;;18.40;99.90;;;;;;5007082;28;20042;-79
2023/08/05 09:35:49;;;;;;;7.07;2.50;;;18.50;99.90;;;;;;5006616;28;20037;-79
2023/08/05 09:38:35;;;;;;;7.40;2.22;;;18.60;99.90;;;;;;5018968;28;20038;-78
2023/08/05 09:41:31;;;;;;;4.97;2.10;;;18.70;99.90;;;;;;5019952;28;20064;-79
2023/08/05 09:44:18;;;;;;;7.55;2.63;;;18.80;99.90;;;;;;5003594;28;20805;-79
2023/08/05 09:47:07;;;;;;;4.45;2.10;;;18.90;99.90;;;;;;5002363;28;20038;-79
2023/08/05 09:49:53;;;;;;;5.18;2.22;;;18.90;99.90;;;;;;5003171;28;20478;-78
2023/08/05 09:52:39;;;;;;;5.13;2.10;;;18.90;99.90;;;;;;5016026;28;20472;-79
2023/08/05 09:55:27;;;;;;;5.80;2.28;;;19.00;99.90;;;;;;5019692;28;20100;-80
2023/08/05 09:58:13;;;;;;;5.80;2.25;;;19.10;99.90;;;;;;5017879;28;20124;-79
2023/08/05 10:00:59;;;;;;;6.00;2.45;;;19.20;99.90;;;;;;5026941;28;20073;-80
2023/08/05 10:03:46;;;;;;;5.45;2.40;;;19.20;99.90;;;;;;5009321;28;20053;-80
2023/08/05 10:06:32;;;;;;;5.75;2.30;;;19.10;99.90;;;;;;5004899;28;20029;-80
2023/08/05 10:09:18;;;;;;;8.23;2.80;;;19.10;99.90;;;;;;4991444;28;20579;-79
2023/08/05 10:12:04;;;;;;;6.93;2.13;;;19.00;99.90;;;;;;5005465;28;20052;-79
2023/08/05 10:14:51;;;;;;;3.65;2.15;;;19.00;99.90;;;;;;4993435;28;20454;-80
2023/08/05 10:17:40;;;;;;;4.05;2.00;;;19.00;99.90;;;;;;5022739;28;20037;-79
2023/08/05 10:20:26;;;;;;;4.85;1.90;;;19.10;99.90;;;;;;5024795;28;20107;-78
2023/08/05 10:23:14;;;;;;;3.83;2.20;;;19.10;99.90;;;;;;5034173;28;20045;-80
2023/08/05 10:26:03;;;;;;;4.03;2.03;;;19.10;99.90;;;;;;5011069;28;20044;-79
2023/08/05 10:28:49;;;;;;;4.15;1.85;;;19.00;99.90;;;;;;5039422;28;20050;-80
2023/08/05 10:31:36;;;;;;;3.38;1.80;;;19.10;99.90;;;;;;5035444;28;20041;-80
2023/08/05 10:34:22;;;;;;;4.80;1.70;;;19.00;99.90;;;;;;5012478;28;20452;-80
2023/08/05 10:37:08;;;;;;;4.53;2.05;;;19.10;99.90;;;;;;5022153;28;20041;-80
2023/08/05 10:40:00;;;;;;;5.60;2.33;;;19.10;99.90;;;;;;5025053;28;20033;-80
2023/08/05 10:42:47;;;;;;;4.88;2.25;;;19.20;99.90;;;;;;5023337;28;20045;-80
2023/08/05 10:45:33;;;;;;;7.38;2.58;;;19.20;99.90;;;;;;5024842;28;20116;-81
2023/08/05 10:48:20;;;;;;;3.25;1.80;;;19.20;99.90;;;;;;4993790;28;20091;-80
2023/08/05 10:51:23;;;;;;;7.75;2.03;;;19.20;99.90;;;;;;4998196;28;20065;-79
2023/08/05 10:54:09;;;;;;;5.40;2.08;;;19.10;99.90;;;;;;4997636;28;20053;-81
2023/08/05 10:56:55;;;;;;;4.25;2.00;;;19.20;99.90;;;;;;5025288;28;20033;-80
2023/08/05 10:59:57;;;;;;;5.97;2.25;;;19.30;99.90;;;;;;5003080;28;20116;-80
2023/08/05 11:02:43;;;;;;;5.75;2.35;;;19.30;99.90;;;;;;5005964;28;20463;-80
2023/08/05 11:05:29;;;;;;;6.05;2.85;;;19.30;99.90;;;;;;4995388;28;20041;-76
2023/08/05 11:08:20;;;;;;;6.68;2.63;;;19.30;99.90;;;;;;4999888;28;20072;-74
2023/08/05 11:11:15;;;;;;;6.25;3.38;;;19.30;99.90;;;;;;5015451;28;20071;-74
2023/08/05 11:14:01;;;;;;;4.88;2.85;;;19.30;99.90;;;;;;4990049;28;20041;-74
2023/08/05 11:16:48;;;;;;;6.05;3.20;;;19.40;99.90;;;;;;4998977;28;20050;-74
2023/08/05 11:19:52;;;;;;;7.47;3.25;;;19.50;99.90;;;;;;4998973;28;20172;-74
2023/08/05 11:22:38;;;;;;;5.75;3.03;;;19.70;99.90;;;;;;4998451;28;20042;-74
2023/08/05 11:25:24;;;;;;;5.85;3.33;;;19.70;99.90;;;;;;5020633;28;20033;-74
2023/08/05 11:28:12;;;;;;;4.93;2.90;;;19.70;99.90;;;;;;5016906;28;20044;-74
2023/08/05 11:31:00;;;;;;;5.45;2.67;;;19.80;99.90;;;;;;5023487;28;20700;-74
2023/08/05 11:33:50;;;;;;;4.93;2.80;;;19.90;99.90;;;;;;4988738;28;20050;-74
2023/08/05 11:36:36;;;;;;;4.50;2.53;;;20.00;99.90;;;;;;5015247;28;20046;-74
2023/08/05 11:39:23;;;;;;;5.90;2.63;;;20.10;99.90;;;;;;5017074;28;20469;-74
2023/08/05 11:42:10;;;;;;;4.90;2.72;;;20.40;99.90;;;;;;5000538;28;20037;-75
2023/08/05 11:44:56;;;;;;;6.28;2.90;;;20.60;99.90;;;;;;5017773;28;20385;-74
2023/08/05 11:47:42;;;;;;;5.80;2.38;;;20.90;99.90;;;;;;5003193;28;20117;-74
2023/08/05 11:50:35;;;;;;;4.78;2.58;;;21.00;99.90;;;;;;5012019;28;20132;-74
2023/08/05 11:53:21;;;;;;;6.82;2.50;;;21.10;99.90;;;;;;4986422;28;20041;-77
2023/08/05 11:56:07;;;;;;;5.55;2.40;;;21.20;99.90;;;;;;5000776;28;20042;-77
2023/08/05 11:58:53;;;;;;;3.63;2.20;;;21.40;99.90;;;;;;5001037;28;20041;-77
2023/08/05 12:01:42;;;;;;;5.00;2.67;;;21.40;99.90;;;;;;4991563;28;20041;-77
2023/08/05 12:04:28;;;;;;;4.18;2.30;;;21.60;99.90;;;;;;4985566;28;20121;-78
2023/08/05 12:07:21;;;;;;;6.93;2.35;;;21.70;99.90;;;;;;5016464;28;20064;-78
2023/08/05 12:10:12;;;;;;;7.22;2.47;;;21.50;99.70;;;;;;5014142;28;20048;-78
2023/08/05 12:13:01;;;;;;;4.80;2.20;;;21.50;99.90;;;;;;5032561;28;20037;-79
2023/08/05 12:15:47;;;;;;;4.85;2.10;;;21.60;99.90;;;;;;5017589;28;20049;-77
2023/08/05 12:18:33;;;;;;;3.33;1.98;;;21.80;99.90;;;;;;4997903;28;20058;-78
2023/08/05 12:21:21;;;;;;;5.22;2.20;;;21.60;99.30;;;;;;4998153;28;20038;-77
2023/08/05 12:24:07;;;;;;;5.10;1.90;;;21.40;99.30;;;;;;4998944;28;20041;-78
2023/08/05 12:26:54;;;;;;;3.65;2.25;;;21.40;99.90;;;;;;4972494;28;20123;-77
2023/08/05 12:29:40;;;;;;;5.82;2.70;;;21.50;99.90;;;;;;5011643;28;20037;-77
2023/08/05 12:32:26;;;;;;;4.75;2.20;;;21.50;99.90;;;;;;5010827;28;20069;-77
2023/08/05 12:35:12;;;;;;;6.75;2.28;;;21.50;99.90;;;;;;4998376;28;20125;-78
2023/08/05 12:37:58;;;;;;;3.53;2.15;;;21.60;99.90;;;;;;5012432;28;20092;-77
2023/08/05 12:40:44;;;;;;;7.97;2.17;;;21.80;99.90;;;;;;4993512;28;20038;-78
2023/08/05 12:43:30;;;;;;;7.32;2.50;;;22.00;99.90;;;;;;5003761;28;20049;-77
2023/08/05 12:46:15;;;;;;;5.05;1.85;;;22.10;99.90;;;;;;5014564;28;20037;-79
2023/08/05 12:49:01;;;;;;;4.78;1.80;;;22.20;99.90;;;;;;4982131;28;20049;-79
2023/08/05 12:51:47;;;;;;;5.63;2.28;;;22.10;99.10;;;;;;4988474;28;20048;-79
2023/08/05 12:54:33;;;;;;;5.30;2.03;;;22.20;99.20;;;;;;5015181;28;20053;-79
2023/08/05 12:57:20;;;;;;;5.15;1.83;;;22.20;99.00;;;;;;5001198;28;20033;-79
2023/08/05 13:00:06;;;;;;;4.15;1.83;;;22.30;98.80;;;;;;5002501;28;20044;-78
2023/08/05 13:02:52;;;;;;;3.97;1.80;;;22.50;98.90;;;;;;5000883;28;20359;-80
2023/08/05 13:05:38;;;;;;;3.67;1.70;;;22.60;98.40;;;;;;5001121;28;20049;-78
2023/08/05 13:08:24;;;;;;;3.78;1.50;;;22.60;98.40;;;;;;4987800;28;20034;-78
2023/08/05 13:11:10;;;;;;;3.40;1.80;;;22.60;98.10;;;;;;4999612;28;20041;-78
2023/08/05 13:13:57;;;;;;;3.35;1.80;;;22.60;98.20;;;;;;4997019;28;20052;-78
2023/08/05 13:16:43;;;;;;;3.42;1.90;;;23.00;97.80;;;;;;5010159;28;20045;-78
2023/08/05 13:19:29;;;;;;;5.10;1.88;;;23.00;97.20;;;;;;5021614;28;20057;-78
2023/08/05 13:22:16;;;;;;;3.92;1.85;;;22.90;96.80;;;;;;5018663;28;20044;-78
2023/08/05 13:25:02;;;;;;;3.63;1.80;;;23.00;96.70;;;;;;4990197;28;20109;-78
2023/08/05 13:27:49;;;;;;;3.13;1.63;;;23.30;98.30;;;;;;5006102;28;20069;-79
2023/08/05 13:30:35;;;;;;;6.05;1.85;;;23.60;97.10;;;;;;5005305;28;20034;-78
2023/08/05 13:33:21;;;;;;;3.75;1.70;;;23.70;97.40;;;;;;5019101;28;20077;-78
2023/08/05 13:36:08;;;;;;;4.65;1.70;;;23.90;97.20;;;;;;5019075;28;20046;-78
2023/08/05 13:38:54;;;;;;;4.93;1.80;;;24.00;96.50;;;;;;4992201;28;20042;-78
2023/08/05 13:41:40;;;;;;;3.83;1.50;;;23.90;96.60;;;;;;5018989;28;20133;-78
2023/08/05 13:44:26;;;;;;;4.03;1.67;;;24.00;96.30;;;;;;5020150;28;20080;-78
2023/08/05 13:47:12;;;;;;;4.07;1.60;;;24.20;96.90;;;;;;5006623;28;20049;-78
2023/08/05 13:49:58;;;;;;;5.13;1.88;;;24.40;95.40;;;;;;4999894;28;20121;-78
2023/08/05 13:52:44;;;;;;;3.38;1.45;;;24.50;94.90;;;;;;5014316;28;20045;-78
2023/08/05 13:55:30;;;;;;;4.30;1.60;;;24.70;94.90;;;;;;4977212;28;20095;-78
2023/08/05 13:58:16;;;;;;;4.53;1.80;;;24.90;94.30;;;;;;5005702;28;20041;-78
2023/08/05 14:01:03;;;;;;;4.22;2.00;;;24.60;93.60;;;;;;5019430;28;20053;-78
2023/08/05 14:03:49;;;;;;;3.22;1.63;;;24.40;93.60;;;;;;4999349;28;20482;-78
2023/08/05 14:06:35;;;;;;;3.47;1.55;;;24.40;93.60;;;;;;5000283;28;20153;-75
2023/08/05 14:09:21;;;;;;;3.90;1.60;;;24.80;95.10;;;;;;5025622;28;20100;-75
2023/08/05 14:12:07;;;;;;;5.03;1.60;;;25.00;93.70;;;;;;5012056;28;20069;-74
2023/08/05 14:14:53;;;;;;;4.35;1.60;;;25.30;93.40;;;;;;4998146;28;20059;-75
2023/08/05 14:17:39;;;;;;;3.88;1.60;;;25.30;93.60;;;;;;5014703;28;20381;-75
2023/08/05 14:20:25;;;;;;;3.88;1.92;;;25.40;92.70;;;;;;5003871;28;20037;-74
2023/08/05 14:23:11;;;;;;;4.97;2.03;;;25.60;93.20;;;;;;5011413;28;20037;-74
2023/08/05 14:25:57;;;;;;;6.63;1.65;;;25.30;92.00;;;;;;5004687;28;20089;-74